MAPA DE AEROPUERTO

INFORMACIÓN METAR y TAF


Deprecated: The each() function is deprecated. This message will be suppressed on further calls in /home/customer/www/clickair-va.com/public_html/VAM/vam/helpers/get_metar.php on line 20
METAR FOR ENVA
ADDS - METARS form results

(0719 UTC 13 January 2023)
Data provider http://aviationweather.gov/metar/data/
 
METAR text: ENVA 130650Z 10004KT CAVOK M02/M04 Q0990 NOSIG RMK WIND 670FT 15011KT
Conditions at: ENVA (TRONDHEIM/VAERNE, NO) observed 0650 UTC 13 January 2023
Temperature: -2.0°C (28°F)
Dewpoint: -4.0°C (25°F) [RH = 86%]
Pressure (altimeter): 29.23 inches Hg (990.0 mb)
Winds: from the E (100 degrees) at 5 MPH (4 knots; 2.1 m/s)
Visibility: 6 or more miles (10+ km)
Ceiling: ceiling and visibility are OK
Clouds: unknown
Weather: no significant weather observed at this time

METAR text: ENVA 130620Z 11004KT 060V160 CAVOK M02/M03 Q0990 NOSIG RMK WIND 670FT 15012KT
Conditions at: ENVA (TRONDHEIM/VAERNE, NO) observed 0620 UTC 13 January 2023
Temperature: -2.0°C (28°F)
Dewpoint: -3.0°C (27°F) [RH = 93%]
Pressure (altimeter): 29.23 inches Hg (990.0 mb)
Winds: from the ESE (110 degrees) at 5 MPH (4 knots; 2.1 m/s)
Visibility: 6 or more miles (10+ km)
Ceiling: ceiling and visibility are OK
Clouds: unknown
Weather: no significant weather observed at this time

Forecast for: ENVA (TRONDHEIM/VAERNE, NO)
Text: TAF ENVA 1306/1406 13007KT 9999 SCT030
Forecast period: 0600 UTC 13 January 2023 to 0600 UTC 14 January 2023
Forecast type: FROM: standard forecast or significant change
Winds: from the SE (130 degrees) at 8 MPH (7 knots; 3.6 m/s)
Visibility: 6 or more miles (10+ km)
Ceiling: at least 12,000 feet AGL
Clouds: scattered clouds at 3000 feet AGL
Weather: no significant weather forecast for this period